sensor_id;sensor_type;location;lat;lon;timestamp;P1;durP1;ratioP1;P2;durP2;ratioP2
52734;SDS011;38631;47.572;10.704;2023-11-22T00:00:08;1.10;;;0.82;;
52734;SDS011;38631;47.572;10.704;2023-11-22T00:02:34;2.50;;;1.17;;
52734;SDS011;38631;47.572;10.704;2023-11-22T00:05:00;2.20;;;0.73;;
52734;SDS011;38631;47.572;10.704;2023-11-22T00:07:26;1.15;;;0.77;;
52734;SDS011;38631;47.572;10.704;2023-11-22T00:09:54;1.20;;;0.82;;
52734;SDS011;38631;47.572;10.704;2023-11-22T00:12:20;0.77;;;0.63;;
52734;SDS011;38631;47.572;10.704;2023-11-22T00:14:45;1.73;;;0.80;;
52734;SDS011;38631;47.572;10.704;2023-11-22T00:17:12;1.25;;;0.80;;
52734;SDS011;38631;47.572;10.704;2023-11-22T00:19:37;0.88;;;0.63;;
52734;SDS011;38631;47.572;10.704;2023-11-22T00:22:03;1.17;;;0.57;;
52734;SDS011;38631;47.572;10.704;2023-11-22T00:24:36;1.65;;;0.60;;
52734;SDS011;38631;47.572;10.704;2023-11-22T00:27:02;0.93;;;0.65;;
52734;SDS011;38631;47.572;10.704;2023-11-22T00:29:27;0.73;;;0.60;;
52734;SDS011;38631;47.572;10.704;2023-11-22T00:31:53;1.50;;;1.00;;
52734;SDS011;38631;47.572;10.704;2023-11-22T00:34:18;3.10;;;1.75;;
52734;SDS011;38631;47.572;10.704;2023-11-22T00:36:43;1.65;;;1.00;;
52734;SDS011;38631;47.572;10.704;2023-11-22T00:39:09;3.35;;;1.65;;
52734;SDS011;38631;47.572;10.704;2023-11-22T00:41:38;2.08;;;1.10;;
52734;SDS011;38631;47.572;10.704;2023-11-22T00:44:03;2.15;;;1.20;;
52734;SDS011;38631;47.572;10.704;2023-11-22T00:46:30;2.15;;;1.70;;
52734;SDS011;38631;47.572;10.704;2023-11-22T00:48:56;1.73;;;1.50;;
52734;SDS011;38631;47.572;10.704;2023-11-22T00:51:22;1.45;;;0.93;;
52734;SDS011;38631;47.572;10.704;2023-11-22T00:53:47;1.67;;;0.98;;
52734;SDS011;38631;47.572;10.704;2023-11-22T00:56:12;0.98;;;0.88;;
52734;SDS011;38631;47.572;10.704;2023-11-22T00:58:38;1.30;;;1.10;;
52734;SDS011;38631;47.572;10.704;2023-11-22T01:01:03;2.05;;;1.30;;
52734;SDS011;38631;47.572;10.704;2023-11-22T01:03:30;3.50;;;2.00;;
52734;SDS011;38631;47.572;10.704;2023-11-22T01:05:55;2.35;;;1.52;;
52734;SDS011;38631;47.572;10.704;2023-11-22T01:08:21;2.08;;;1.30;;
52734;SDS011;38631;47.572;10.704;2023-11-22T01:10:47;1.67;;;1.20;;
52734;SDS011;38631;47.572;10.704;2023-11-22T01:13:12;1.15;;;0.88;;
52734;SDS011;38631;47.572;10.704;2023-11-22T01:15:39;1.98;;;1.20;;
52734;SDS011;38631;47.572;10.704;2023-11-22T01:18:05;1.92;;;0.93;;
52734;SDS011;38631;47.572;10.704;2023-11-22T01:20:30;1.77;;;1.30;;
52734;SDS011;38631;47.572;10.704;2023-11-22T01:22:56;1.42;;;1.27;;
52734;SDS011;38631;47.572;10.704;2023-11-22T01:25:21;2.17;;;1.40;;
52734;SDS011;38631;47.572;10.704;2023-11-22T01:27:47;1.25;;;1.10;;
52734;SDS011;38631;47.572;10.704;2023-11-22T01:30:12;1.40;;;1.20;;
52734;SDS011;38631;47.572;10.704;2023-11-22T01:32:38;1.70;;;1.30;;
52734;SDS011;38631;47.572;10.704;2023-11-22T01:35:04;1.90;;;1.50;;
52734;SDS011;38631;47.572;10.704;2023-11-22T01:37:30;2.28;;;1.80;;
52734;SDS011;38631;47.572;10.704;2023-11-22T01:39:57;1.40;;;1.27;;
52734;SDS011;38631;47.572;10.704;2023-11-22T01:42:22;1.60;;;1.42;;
52734;SDS011;38631;47.572;10.704;2023-11-22T01:44:48;1.92;;;1.45;;
52734;SDS011;38631;47.572;10.704;2023-11-22T01:47:14;2.78;;;1.80;;
52734;SDS011;38631;47.572;10.704;2023-11-22T01:49:40;1.95;;;1.52;;
52734;SDS011;38631;47.572;10.704;2023-11-22T01:52:06;2.25;;;1.73;;
52734;SDS011;38631;47.572;10.704;2023-11-22T01:54:31;1.85;;;1.63;;
52734;SDS011;38631;47.572;10.704;2023-11-22T01:56:58;3.70;;;2.00;;
52734;SDS011;38631;47.572;10.704;2023-11-22T01:59:24;2.20;;;1.77;;
52734;SDS011;38631;47.572;10.704;2023-11-22T02:01:52;2.45;;;2.00;;
52734;SDS011;38631;47.572;10.704;2023-11-22T02:04:18;2.58;;;2.17;;
52734;SDS011;38631;47.572;10.704;2023-11-22T02:06:44;2.72;;;2.00;;
52734;SDS011;38631;47.572;10.704;2023-11-22T02:09:10;2.33;;;1.73;;
52734;SDS011;38631;47.572;10.704;2023-11-22T02:11:38;2.60;;;2.10;;
52734;SDS011;38631;47.572;10.704;2023-11-22T02:14:04;2.20;;;1.90;;
52734;SDS011;38631;47.572;10.704;2023-11-22T02:16:32;2.40;;;1.95;;
52734;SDS011;38631;47.572;10.704;2023-11-22T02:18:57;3.10;;;2.20;;
52734;SDS011;38631;47.572;10.704;2023-11-22T02:21:23;3.85;;;2.58;;
52734;SDS011;38631;47.572;10.704;2023-11-22T02:23:48;3.28;;;2.45;;
52734;SDS011;38631;47.572;10.704;2023-11-22T02:26:14;3.55;;;2.40;;
52734;SDS011;38631;47.572;10.704;2023-11-22T02:28:42;3.60;;;2.70;;
52734;SDS011;38631;47.572;10.704;2023-11-22T02:31:08;4.07;;;2.10;;
52734;SDS011;38631;47.572;10.704;2023-11-22T02:33:33;2.88;;;2.25;;
52734;SDS011;38631;47.572;10.704;2023-11-22T02:36:00;3.47;;;2.50;;
52734;SDS011;38631;47.572;10.704;2023-11-22T02:38:27;3.33;;;1.98;;
52734;SDS011;38631;47.572;10.704;2023-11-22T02:40:53;3.53;;;3.05;;
52734;SDS011;38631;47.572;10.704;2023-11-22T02:43:18;3.30;;;2.30;;
52734;SDS011;38631;47.572;10.704;2023-11-22T02:45:44;3.47;;;2.60;;
52734;SDS011;38631;47.572;10.704;2023-11-22T02:48:09;3.38;;;2.60;;
52734;SDS011;38631;47.572;10.704;2023-11-22T02:50:35;3.83;;;2.70;;
52734;SDS011;38631;47.572;10.704;2023-11-22T02:53:02;2.35;;;1.88;;
52734;SDS011;38631;47.572;10.704;2023-11-22T02:55:28;3.13;;;2.42;;
52734;SDS011;38631;47.572;10.704;2023-11-22T02:57:54;3.63;;;2.55;;
52734;SDS011;38631;47.572;10.704;2023-11-22T03:00:20;3.50;;;2.70;;
52734;SDS011;38631;47.572;10.704;2023-11-22T03:02:46;3.17;;;2.50;;
52734;SDS011;38631;47.572;10.704;2023-11-22T03:05:12;2.58;;;2.28;;
52734;SDS011;38631;47.572;10.704;2023-11-22T03:07:38;3.40;;;2.85;;
52734;SDS011;38631;47.572;10.704;2023-11-22T03:10:05;3.50;;;2.70;;
52734;SDS011;38631;47.572;10.704;2023-11-22T03:12:32;3.05;;;2.45;;
52734;SDS011;38631;47.572;10.704;2023-11-22T03:15:03;4.47;;;2.92;;
52734;SDS011;38631;47.572;10.704;2023-11-22T03:17:29;3.92;;;2.42;;
52734;SDS011;38631;47.572;10.704;2023-11-22T03:19:55;3.35;;;2.38;;
52734;SDS011;38631;47.572;10.704;2023-11-22T03:22:24;3.40;;;2.47;;
52734;SDS011;38631;47.572;10.704;2023-11-22T03:24:50;2.75;;;2.42;;
52734;SDS011;38631;47.572;10.704;2023-11-22T03:27:15;2.90;;;2.40;;
52734;SDS011;38631;47.572;10.704;2023-11-22T03:29:40;3.83;;;2.13;;
52734;SDS011;38631;47.572;10.704;2023-11-22T03:32:06;3.03;;;2.28;;
52734;SDS011;38631;47.572;10.704;2023-11-22T03:34:31;3.85;;;2.40;;
52734;SDS011;38631;47.572;10.704;2023-11-22T03:36:57;2.95;;;2.33;;
52734;SDS011;38631;47.572;10.704;2023-11-22T03:39:22;3.42;;;2.63;;
52734;SDS011;38631;47.572;10.704;2023-11-22T03:41:47;3.53;;;2.45;;
52734;SDS011;38631;47.572;10.704;2023-11-22T03:44:13;4.30;;;2.70;;
52734;SDS011;38631;47.572;10.704;2023-11-22T03:46:38;5.15;;;3.80;;
52734;SDS011;38631;47.572;10.704;2023-11-22T03:49:04;4.43;;;3.13;;
52734;SDS011;38631;47.572;10.704;2023-11-22T03:51:31;5.20;;;3.53;;
52734;SDS011;38631;47.572;10.704;2023-11-22T03:53:57;4.85;;;3.45;;
52734;SDS011;38631;47.572;10.704;2023-11-22T03:56:23;4.57;;;3.45;;
52734;SDS011;38631;47.572;10.704;2023-11-22T03:58:48;4.70;;;3.45;;
52734;SDS011;38631;47.572;10.704;2023-11-22T04:01:13;4.78;;;3.10;;
52734;SDS011;38631;47.572;10.704;2023-11-22T04:03:40;3.90;;;3.00;;
52734;SDS011;38631;47.572;10.704;2023-11-22T04:06:06;5.93;;;3.20;;
52734;SDS011;38631;47.572;10.704;2023-11-22T04:08:32;5.55;;;3.42;;
52734;SDS011;38631;47.572;10.704;2023-11-22T04:10:57;4.07;;;3.15;;
52734;SDS011;38631;47.572;10.704;2023-11-22T04:13:22;4.47;;;3.33;;
52734;SDS011;38631;47.572;10.704;2023-11-22T04:15:49;4.13;;;2.75;;
52734;SDS011;38631;47.572;10.704;2023-11-22T04:18:15;4.75;;;3.25;;
52734;SDS011;38631;47.572;10.704;2023-11-22T04:20:41;5.57;;;4.43;;
52734;SDS011;38631;47.572;10.704;2023-11-22T04:23:07;6.00;;;4.60;;
52734;SDS011;38631;47.572;10.704;2023-11-22T04:25:34;5.68;;;4.70;;
52734;SDS011;38631;47.572;10.704;2023-11-22T04:28:00;6.40;;;5.28;;
52734;SDS011;38631;47.572;10.704;2023-11-22T04:30:25;5.32;;;4.22;;
52734;SDS011;38631;47.572;10.704;2023-11-22T04:32:51;7.32;;;4.93;;
52734;SDS011;38631;47.572;10.704;2023-11-22T04:35:16;6.78;;;4.25;;
52734;SDS011;38631;47.572;10.704;2023-11-22T04:37:42;5.35;;;3.90;;
52734;SDS011;38631;47.572;10.704;2023-11-22T04:40:07;6.07;;;4.07;;
52734;SDS011;38631;47.572;10.704;2023-11-22T04:42:36;8.73;;;4.72;;
52734;SDS011;38631;47.572;10.704;2023-11-22T04:45:02;7.47;;;4.45;;
52734;SDS011;38631;47.572;10.704;2023-11-22T04:47:28;4.93;;;3.45;;
52734;SDS011;38631;47.572;10.704;2023-11-22T04:49:53;5.22;;;3.63;;
52734;SDS011;38631;47.572;10.704;2023-11-22T04:52:19;5.53;;;4.10;;
52734;SDS011;38631;47.572;10.704;2023-11-22T04:54:44;5.80;;;3.88;;
52734;SDS011;38631;47.572;10.704;2023-11-22T04:57:11;8.30;;;4.15;;
52734;SDS011;38631;47.572;10.704;2023-11-22T04:59:37;5.10;;;3.50;;
52734;SDS011;38631;47.572;10.704;2023-11-22T05:02:03;6.28;;;4.07;;
52734;SDS011;38631;47.572;10.704;2023-11-22T05:04:29;6.53;;;3.80;;
52734;SDS011;38631;47.572;10.704;2023-11-22T05:06:54;5.45;;;3.35;;
52734;SDS011;38631;47.572;10.704;2023-11-22T05:09:20;6.25;;;3.90;;
52734;SDS011;38631;47.572;10.704;2023-11-22T05:11:46;6.93;;;4.05;;
52734;SDS011;38631;47.572;10.704;2023-11-22T05:14:11;5.90;;;4.18;;
52734;SDS011;38631;47.572;10.704;2023-11-22T05:16:38;7.47;;;4.10;;
52734;SDS011;38631;47.572;10.704;2023-11-22T05:19:03;6.82;;;4.68;;
52734;SDS011;38631;47.572;10.704;2023-11-22T05:21:29;7.88;;;4.72;;
52734;SDS011;38631;47.572;10.704;2023-11-22T05:23:55;7.32;;;4.68;;
52734;SDS011;38631;47.572;10.704;2023-11-22T05:26:20;6.72;;;4.63;;
52734;SDS011;38631;47.572;10.704;2023-11-22T05:28:47;8.73;;;4.82;;
52734;SDS011;38631;47.572;10.704;2023-11-22T05:31:13;9.13;;;5.20;;
52734;SDS011;38631;47.572;10.704;2023-11-22T05:33:39;8.20;;;4.95;;
52734;SDS011;38631;47.572;10.704;2023-11-22T05:36:05;6.40;;;4.20;;
52734;SDS011;38631;47.572;10.704;2023-11-22T05:38:31;9.45;;;5.43;;
52734;SDS011;38631;47.572;10.704;2023-11-22T05:40:58;7.63;;;5.05;;
52734;SDS011;38631;47.572;10.704;2023-11-22T05:43:25;7.75;;;5.53;;
52734;SDS011;38631;47.572;10.704;2023-11-22T05:45:52;8.05;;;5.40;;
52734;SDS011;38631;47.572;10.704;2023-11-22T05:48:18;8.35;;;5.20;;
52734;SDS011;38631;47.572;10.704;2023-11-22T05:50:44;4.65;;;2.97;;
52734;SDS011;38631;47.572;10.704;2023-11-22T05:53:10;3.78;;;2.78;;
52734;SDS011;38631;47.572;10.704;2023-11-22T05:55:36;1.88;;;1.33;;
52734;SDS011;38631;47.572;10.704;2023-11-22T05:58:02;2.00;;;1.40;;
52734;SDS011;38631;47.572;10.704;2023-11-22T06:00:28;1.95;;;1.23;;
52734;SDS011;38631;47.572;10.704;2023-11-22T06:02:54;1.60;;;1.23;;
52734;SDS011;38631;47.572;10.704;2023-11-22T06:05:20;1.70;;;1.15;;
52734;SDS011;38631;47.572;10.704;2023-11-22T06:07:46;1.23;;;1.00;;
52734;SDS011;38631;47.572;10.704;2023-11-22T06:10:12;1.30;;;0.77;;
52734;SDS011;38631;47.572;10.704;2023-11-22T06:12:39;1.00;;;0.70;;
52734;SDS011;38631;47.572;10.704;2023-11-22T06:15:05;1.60;;;1.08;;
52734;SDS011;38631;47.572;10.704;2023-11-22T06:17:31;1.10;;;0.63;;
52734;SDS011;38631;47.572;10.704;2023-11-22T06:19:56;1.60;;;0.90;;
52734;SDS011;38631;47.572;10.704;2023-11-22T06:22:22;1.90;;;1.40;;
52734;SDS011;38631;47.572;10.704;2023-11-22T06:24:47;2.38;;;1.60;;
52734;SDS011;38631;47.572;10.704;2023-11-22T06:27:13;2.08;;;1.73;;
52734;SDS011;38631;47.572;10.704;2023-11-22T06:29:38;3.30;;;2.38;;
52734;SDS011;38631;47.572;10.704;2023-11-22T06:32:04;3.35;;;2.35;;
52734;SDS011;38631;47.572;10.704;2023-11-22T06:34:31;2.60;;;1.88;;
52734;SDS011;38631;47.572;10.704;2023-11-22T06:36:56;9.05;;;2.22;;
52734;SDS011;38631;47.572;10.704;2023-11-22T06:39:22;2.85;;;1.98;;
52734;SDS011;38631;47.572;10.704;2023-11-22T06:41:49;2.72;;;2.00;;
52734;SDS011;38631;47.572;10.704;2023-11-22T06:44:15;2.42;;;1.98;;
52734;SDS011;38631;47.572;10.704;2023-11-22T06:46:40;2.40;;;1.85;;
52734;SDS011;38631;47.572;10.704;2023-11-22T06:49:05;2.67;;;1.88;;
52734;SDS011;38631;47.572;10.704;2023-11-22T06:51:31;2.22;;;1.80;;
52734;SDS011;38631;47.572;10.704;2023-11-22T06:53:56;2.40;;;1.85;;
52734;SDS011;38631;47.572;10.704;2023-11-22T06:56:22;3.05;;;2.08;;
52734;SDS011;38631;47.572;10.704;2023-11-22T06:58:48;2.97;;;2.50;;
52734;SDS011;38631;47.572;10.704;2023-11-22T07:01:13;2.53;;;2.20;;
52734;SDS011;38631;47.572;10.704;2023-11-22T07:03:39;3.65;;;2.83;;
52734;SDS011;38631;47.572;10.704;2023-11-22T07:06:05;3.45;;;2.60;;
52734;SDS011;38631;47.572;10.704;2023-11-22T07:08:30;3.10;;;2.33;;
52734;SDS011;38631;47.572;10.704;2023-11-22T07:10:56;3.53;;;2.42;;
52734;SDS011;38631;47.572;10.704;2023-11-22T07:13:24;3.65;;;2.78;;
52734;SDS011;38631;47.572;10.704;2023-11-22T07:15:49;3.58;;;2.65;;
52734;SDS011;38631;47.572;10.704;2023-11-22T07:18:15;4.80;;;2.70;;
52734;SDS011;38631;47.572;10.704;2023-11-22T07:20:41;3.20;;;2.28;;
52734;SDS011;38631;47.572;10.704;2023-11-22T07:23:07;3.78;;;2.50;;
52734;SDS011;38631;47.572;10.704;2023-11-22T07:25:38;3.35;;;2.35;;
52734;SDS011;38631;47.572;10.704;2023-11-22T07:28:03;3.67;;;2.55;;
52734;SDS011;38631;47.572;10.704;2023-11-22T07:30:29;3.75;;;2.95;;
52734;SDS011;38631;47.572;10.704;2023-11-22T07:32:55;2.92;;;2.63;;
52734;SDS011;38631;47.572;10.704;2023-11-22T07:35:21;3.97;;;3.08;;
52734;SDS011;38631;47.572;10.704;2023-11-22T07:37:46;4.47;;;3.17;;
52734;SDS011;38631;47.572;10.704;2023-11-22T07:40:13;6.63;;;5.82;;
52734;SDS011;38631;47.572;10.704;2023-11-22T07:42:39;8.00;;;6.93;;
52734;SDS011;38631;47.572;10.704;2023-11-22T07:47:36;16.08;;;10.18;;
52734;SDS011;38631;47.572;10.704;2023-11-22T07:50:05;9.70;;;5.78;;
52734;SDS011;38631;47.572;10.704;2023-11-22T07:52:32;5.07;;;3.80;;
52734;SDS011;38631;47.572;10.704;2023-11-22T07:54:57;3.25;;;2.53;;
52734;SDS011;38631;47.572;10.704;2023-11-22T07:57:24;3.13;;;2.17;;
52734;SDS011;38631;47.572;10.704;2023-11-22T07:59:50;2.35;;;1.92;;
52734;SDS011;38631;47.572;10.704;2023-11-22T08:02:19;3.13;;;2.33;;
52734;SDS011;38631;47.572;10.704;2023-11-22T08:04:44;3.20;;;2.35;;
52734;SDS011;38631;47.572;10.704;2023-11-22T08:07:10;5.32;;;3.00;;
52734;SDS011;38631;47.572;10.704;2023-11-22T08:09:39;4.63;;;2.70;;
52734;SDS011;38631;47.572;10.704;2023-11-22T08:12:08;3.45;;;2.40;;
52734;SDS011;38631;47.572;10.704;2023-11-22T08:14:36;4.47;;;3.28;;
52734;SDS011;38631;47.572;10.704;2023-11-22T08:17:05;4.30;;;2.70;;
52734;SDS011;38631;47.572;10.704;2023-11-22T08:19:31;3.67;;;2.63;;
52734;SDS011;38631;47.572;10.704;2023-11-22T08:21:56;3.92;;;2.63;;
52734;SDS011;38631;47.572;10.704;2023-11-22T08:24:22;2.80;;;2.15;;
52734;SDS011;38631;47.572;10.704;2023-11-22T08:26:47;3.75;;;2.55;;
52734;SDS011;38631;47.572;10.704;2023-11-22T08:29:12;4.03;;;2.63;;
52734;SDS011;38631;47.572;10.704;2023-11-22T08:31:39;4.97;;;3.47;;
52734;SDS011;38631;47.572;10.704;2023-11-22T08:34:05;7.78;;;5.45;;
52734;SDS011;38631;47.572;10.704;2023-11-22T08:36:32;5.80;;;4.60;;
52734;SDS011;38631;47.572;10.704;2023-11-22T08:39:00;6.22;;;4.55;;
52734;SDS011;38631;47.572;10.704;2023-11-22T08:41:27;7.25;;;4.55;;
52734;SDS011;38631;47.572;10.704;2023-11-22T08:43:54;5.93;;;3.40;;
52734;SDS011;38631;47.572;10.704;2023-11-22T08:46:20;5.28;;;3.85;;
52734;SDS011;38631;47.572;10.704;2023-11-22T08:48:45;5.18;;;3.75;;
52734;SDS011;38631;47.572;10.704;2023-11-22T08:51:10;6.03;;;4.10;;
52734;SDS011;38631;47.572;10.704;2023-11-22T08:53:36;7.05;;;3.70;;
52734;SDS011;38631;47.572;10.704;2023-11-22T08:56:02;6.53;;;4.20;;
52734;SDS011;38631;47.572;10.704;2023-11-22T08:58:30;6.38;;;3.78;;
52734;SDS011;38631;47.572;10.704;2023-11-22T09:00:56;9.60;;;3.97;;
52734;SDS011;38631;47.572;10.704;2023-11-22T09:03:22;15.43;;;9.10;;
52734;SDS011;38631;47.572;10.704;2023-11-22T09:05:48;5.68;;;4.10;;
52734;SDS011;38631;47.572;10.704;2023-11-22T09:08:14;4.97;;;3.35;;
52734;SDS011;38631;47.572;10.704;2023-11-22T09:10:40;6.30;;;3.53;;
52734;SDS011;38631;47.572;10.704;2023-11-22T09:13:07;5.45;;;3.90;;
52734;SDS011;38631;47.572;10.704;2023-11-22T09:15:36;6.73;;;4.60;;
52734;SDS011;38631;47.572;10.704;2023-11-22T09:18:03;16.08;;;9.48;;
52734;SDS011;38631;47.572;10.704;2023-11-22T09:20:29;12.20;;;7.13;;
52734;SDS011;38631;47.572;10.704;2023-11-22T09:22:55;7.03;;;4.50;;
52734;SDS011;38631;47.572;10.704;2023-11-22T09:25:21;7.35;;;5.32;;
52734;SDS011;38631;47.572;10.704;2023-11-22T09:27:48;6.63;;;4.65;;
52734;SDS011;38631;47.572;10.704;2023-11-22T09:30:17;7.75;;;4.90;;
52734;SDS011;38631;47.572;10.704;2023-11-22T09:35:29;8.40;;;5.55;;
52734;SDS011;38631;47.572;10.704;2023-11-22T09:37:56;7.47;;;4.65;;
52734;SDS011;38631;47.572;10.704;2023-11-22T09:40:22;5.75;;;4.40;;
52734;SDS011;38631;47.572;10.704;2023-11-22T09:42:48;6.05;;;4.07;;
52734;SDS011;38631;47.572;10.704;2023-11-22T09:45:16;6.75;;;4.00;;
52734;SDS011;38631;47.572;10.704;2023-11-22T09:47:46;5.28;;;3.97;;
52734;SDS011;38631;47.572;10.704;2023-11-22T09:50:20;5.20;;;4.22;;
52734;SDS011;38631;47.572;10.704;2023-11-22T09:52:50;5.32;;;3.45;;
52734;SDS011;38631;47.572;10.704;2023-11-22T09:55:19;5.65;;;3.88;;
52734;SDS011;38631;47.572;10.704;2023-11-22T09:57:47;5.38;;;3.97;;
52734;SDS011;38631;47.572;10.704;2023-11-22T10:00:13;4.45;;;3.25;;
52734;SDS011;38631;47.572;10.704;2023-11-22T10:02:43;5.15;;;3.70;;
52734;SDS011;38631;47.572;10.704;2023-11-22T10:05:09;4.55;;;3.63;;
52734;SDS011;38631;47.572;10.704;2023-11-22T10:07:36;5.32;;;3.92;;
52734;SDS011;38631;47.572;10.704;2023-11-22T10:10:02;6.70;;;4.28;;
52734;SDS011;38631;47.572;10.704;2023-11-22T10:12:30;5.55;;;3.88;;
52734;SDS011;38631;47.572;10.704;2023-11-22T10:15:10;6.22;;;4.07;;
52734;SDS011;38631;47.572;10.704;2023-11-22T10:20:01;5.43;;;3.83;;
52734;SDS011;38631;47.572;10.704;2023-11-22T10:22:27;4.40;;;3.47;;
52734;SDS011;38631;47.572;10.704;2023-11-22T10:24:52;5.40;;;3.45;;
52734;SDS011;38631;47.572;10.704;2023-11-22T10:27:20;4.78;;;3.85;;
52734;SDS011;38631;47.572;10.704;2023-11-22T10:29:45;5.35;;;3.75;;
52734;SDS011;38631;47.572;10.704;2023-11-22T10:32:12;5.15;;;3.50;;
52734;SDS011;38631;47.572;10.704;2023-11-22T10:34:37;4.45;;;3.15;;
52734;SDS011;38631;47.572;10.704;2023-11-22T10:37:04;5.45;;;4.00;;
52734;SDS011;38631;47.572;10.704;2023-11-22T10:39:29;5.20;;;3.97;;
52734;SDS011;38631;47.572;10.704;2023-11-22T10:41:54;5.15;;;3.75;;
52734;SDS011;38631;47.572;10.704;2023-11-22T10:44:20;3.75;;;2.78;;
52734;SDS011;38631;47.572;10.704;2023-11-22T10:46:48;3.85;;;2.58;;
52734;SDS011;38631;47.572;10.704;2023-11-22T10:49:14;3.92;;;3.20;;
52734;SDS011;38631;47.572;10.704;2023-11-22T10:51:39;5.22;;;3.30;;
52734;SDS011;38631;47.572;10.704;2023-11-22T10:54:09;5.68;;;4.20;;
52734;SDS011;38631;47.572;10.704;2023-11-22T10:56:39;4.13;;;3.22;;
52734;SDS011;38631;47.572;10.704;2023-11-22T10:59:12;3.63;;;2.65;;
52734;SDS011;38631;47.572;10.704;2023-11-22T11:01:40;3.30;;;2.80;;
52734;SDS011;38631;47.572;10.704;2023-11-22T11:04:11;4.88;;;3.20;;
52734;SDS011;38631;47.572;10.704;2023-11-22T11:06:43;3.35;;;2.40;;
52734;SDS011;38631;47.572;10.704;2023-11-22T11:09:11;3.50;;;2.72;;
52734;SDS011;38631;47.572;10.704;2023-11-22T11:11:40;3.97;;;2.85;;
52734;SDS011;38631;47.572;10.704;2023-11-22T11:14:05;4.10;;;2.95;;
52734;SDS011;38631;47.572;10.704;2023-11-22T11:16:36;4.25;;;2.90;;
52734;SDS011;38631;47.572;10.704;2023-11-22T11:19:06;4.63;;;2.63;;
52734;SDS011;38631;47.572;10.704;2023-11-22T11:21:32;3.58;;;2.60;;
52734;SDS011;38631;47.572;10.704;2023-11-22T11:23:58;3.30;;;2.63;;
52734;SDS011;38631;47.572;10.704;2023-11-22T11:26:28;4.53;;;2.95;;
52734;SDS011;38631;47.572;10.704;2023-11-22T11:28:54;6.30;;;3.45;;
52734;SDS011;38631;47.572;10.704;2023-11-22T11:31:22;6.75;;;4.15;;
52734;SDS011;38631;47.572;10.704;2023-11-22T11:36:30;3.72;;;2.78;;
52734;SDS011;38631;47.572;10.704;2023-11-22T11:38:58;7.00;;;4.55;;
52734;SDS011;38631;47.572;10.704;2023-11-22T11:41:30;5.80;;;3.80;;
52734;SDS011;38631;47.572;10.704;2023-11-22T11:44:03;5.30;;;3.33;;
52734;SDS011;38631;47.572;10.704;2023-11-22T11:46:29;4.82;;;3.45;;
52734;SDS011;38631;47.572;10.704;2023-11-22T11:48:55;4.13;;;2.70;;
52734;SDS011;38631;47.572;10.704;2023-11-22T11:51:21;3.90;;;2.60;;
52734;SDS011;38631;47.572;10.704;2023-11-22T11:53:48;6.35;;;3.30;;
52734;SDS011;38631;47.572;10.704;2023-11-22T11:56:14;4.00;;;2.55;;
52734;SDS011;38631;47.572;10.704;2023-11-22T11:58:43;5.43;;;3.50;;
52734;SDS011;38631;47.572;10.704;2023-11-22T12:01:13;5.50;;;3.15;;
52734;SDS011;38631;47.572;10.704;2023-11-22T12:06:05;5.25;;;3.10;;
52734;SDS011;38631;47.572;10.704;2023-11-22T12:08:31;4.65;;;2.90;;
52734;SDS011;38631;47.572;10.704;2023-11-22T12:11:01;4.22;;;2.65;;
52734;SDS011;38631;47.572;10.704;2023-11-22T12:13:30;3.72;;;2.80;;
52734;SDS011;38631;47.572;10.704;2023-11-22T12:15:56;2.95;;;1.98;;
52734;SDS011;38631;47.572;10.704;2023-11-22T12:18:22;3.28;;;2.55;;
52734;SDS011;38631;47.572;10.704;2023-11-22T12:20:58;4.38;;;2.75;;
52734;SDS011;38631;47.572;10.704;2023-11-22T12:23:25;3.63;;;2.40;;
52734;SDS011;38631;47.572;10.704;2023-11-22T12:25:58;3.45;;;2.40;;
52734;SDS011;38631;47.572;10.704;2023-11-22T12:28:26;3.45;;;2.38;;
52734;SDS011;38631;47.572;10.704;2023-11-22T12:30:53;3.83;;;2.50;;
52734;SDS011;38631;47.572;10.704;2023-11-22T12:33:18;3.67;;;2.63;;
52734;SDS011;38631;47.572;10.704;2023-11-22T12:35:44;4.07;;;2.60;;
52734;SDS011;38631;47.572;10.704;2023-11-22T12:38:13;4.50;;;2.85;;
52734;SDS011;38631;47.572;10.704;2023-11-22T12:40:44;3.90;;;2.72;;
52734;SDS011;38631;47.572;10.704;2023-11-22T12:43:12;3.15;;;2.35;;
52734;SDS011;38631;47.572;10.704;2023-11-22T12:45:39;3.75;;;2.80;;
52734;SDS011;38631;47.572;10.704;2023-11-22T12:48:21;3.55;;;2.50;;
52734;SDS011;38631;47.572;10.704;2023-11-22T12:50:52;2.78;;;2.00;;
52734;SDS011;38631;47.572;10.704;2023-11-22T12:53:18;3.67;;;2.40;;
52734;SDS011;38631;47.572;10.704;2023-11-22T12:55:47;3.22;;;2.45;;
52734;SDS011;38631;47.572;10.704;2023-11-22T12:58:14;3.22;;;2.40;;
52734;SDS011;38631;47.572;10.704;2023-11-22T13:00:51;3.75;;;2.80;;
52734;SDS011;38631;47.572;10.704;2023-11-22T13:03:28;4.90;;;2.75;;
52734;SDS011;38631;47.572;10.704;2023-11-22T13:05:53;3.80;;;2.78;;
52734;SDS011;38631;47.572;10.704;2023-11-22T13:08:19;6.97;;;4.20;;
52734;SDS011;38631;47.572;10.704;2023-11-22T13:10:47;8.40;;;4.70;;
52734;SDS011;38631;47.572;10.704;2023-11-22T13:13:18;10.98;;;6.07;;
52734;SDS011;38631;47.572;10.704;2023-11-22T13:15:44;6.07;;;3.88;;
52734;SDS011;38631;47.572;10.704;2023-11-22T13:18:10;4.78;;;3.40;;
52734;SDS011;38631;47.572;10.704;2023-11-22T13:20:35;6.25;;;3.28;;
52734;SDS011;38631;47.572;10.704;2023-11-22T13:23:03;4.95;;;3.47;;
52734;SDS011;38631;47.572;10.704;2023-11-22T13:25:29;6.10;;;3.92;;
52734;SDS011;38631;47.572;10.704;2023-11-22T13:27:54;6.90;;;4.55;;
52734;SDS011;38631;47.572;10.704;2023-11-22T13:30:21;6.88;;;4.18;;
52734;SDS011;38631;47.572;10.704;2023-11-22T13:32:54;5.70;;;3.53;;
52734;SDS011;38631;47.572;10.704;2023-11-22T13:35:26;6.45;;;3.45;;
52734;SDS011;38631;47.572;10.704;2023-11-22T13:37:55;5.05;;;3.67;;
52734;SDS011;38631;47.572;10.704;2023-11-22T13:40:21;6.50;;;3.92;;
52734;SDS011;38631;47.572;10.704;2023-11-22T13:42:48;4.68;;;3.67;;
52734;SDS011;38631;47.572;10.704;2023-11-22T13:45:15;4.82;;;3.90;;
52734;SDS011;38631;47.572;10.704;2023-11-22T13:47:42;5.78;;;4.15;;
52734;SDS011;38631;47.572;10.704;2023-11-22T13:50:22;4.90;;;3.33;;
52734;SDS011;38631;47.572;10.704;2023-11-22T13:52:48;6.68;;;3.80;;
52734;SDS011;38631;47.572;10.704;2023-11-22T13:55:15;4.65;;;3.67;;
52734;SDS011;38631;47.572;10.704;2023-11-22T13:57:43;4.38;;;3.58;;
52734;SDS011;38631;47.572;10.704;2023-11-22T14:00:09;5.45;;;3.75;;
52734;SDS011;38631;47.572;10.704;2023-11-22T14:02:37;7.05;;;4.13;;
52734;SDS011;38631;47.572;10.704;2023-11-22T14:05:07;6.05;;;3.22;;
52734;SDS011;38631;47.572;10.704;2023-11-22T14:07:35;4.43;;;3.50;;
52734;SDS011;38631;47.572;10.704;2023-11-22T14:10:02;4.60;;;3.60;;
52734;SDS011;38631;47.572;10.704;2023-11-22T14:12:31;5.57;;;3.45;;
52734;SDS011;38631;47.572;10.704;2023-11-22T14:14:57;7.50;;;4.57;;
52734;SDS011;38631;47.572;10.704;2023-11-22T14:17:23;7.88;;;4.90;;
52734;SDS011;38631;47.572;10.704;2023-11-22T14:19:50;8.85;;;5.30;;
52734;SDS011;38631;47.572;10.704;2023-11-22T14:22:15;8.07;;;5.13;;
52734;SDS011;38631;47.572;10.704;2023-11-22T14:24:42;4.80;;;3.65;;
52734;SDS011;38631;47.572;10.704;2023-11-22T14:27:09;5.22;;;3.83;;
52734;SDS011;38631;47.572;10.704;2023-11-22T14:29:35;5.32;;;4.10;;
52734;SDS011;38631;47.572;10.704;2023-11-22T14:32:01;6.15;;;4.15;;
52734;SDS011;38631;47.572;10.704;2023-11-22T14:34:27;5.88;;;4.22;;
52734;SDS011;38631;47.572;10.704;2023-11-22T14:36:52;7.20;;;4.45;;
52734;SDS011;38631;47.572;10.704;2023-11-22T14:39:17;5.13;;;3.70;;
52734;SDS011;38631;47.572;10.704;2023-11-22T14:41:44;5.95;;;4.30;;